Time;durP1;ratioP1;P1;durP2;ratioP2;P2;SDS_P1;SDS_P2;PMS_P1;PMS_P2;Temp;Humidity;BMP_temperature;BMP_pressure;BME280_temperature;BME280_humidity;BME280_pressure;Samples;Min_cycle;Max_cycle;Signal;HPM_P1;HPM_P2
2021/11/01 00:02:25;;;;;;;1.77;1.50;;;;;;;15.70;70.03;99190.13;5060940;28;20292;-79
2021/11/01 00:04:52;;;;;;;2.63;1.83;;;;;;;15.67;70.49;99182.41;5063152;28;20202;-78
2021/11/01 00:07:19;;;;;;;3.10;1.70;;;;;;;15.60;71.29;99187.59;5063829;28;20201;-77
2021/11/01 00:09:46;;;;;;;1.83;1.40;;;;;;;15.58;71.91;99186.09;5069602;28;20227;-77
2021/11/01 00:12:13;;;;;;;1.50;1.40;;;;;;;15.52;72.34;99184.03;5064680;28;20212;-77
2021/11/01 00:14:41;;;;;;;1.23;0.93;;;;;;;15.46;72.14;99188.19;5065745;28;20212;-77
2021/11/01 00:17:07;;;;;;;0.90;0.80;;;;;;;15.40;72.37;99178.13;5058568;28;20225;-77
2021/11/01 00:19:34;;;;;;;1.13;0.90;;;;;;;15.33;72.28;99171.75;5063222;28;20198;-77
2021/11/01 00:22:01;;;;;;;0.60;0.60;;;;;;;15.26;72.46;99168.84;5064238;28;20298;-77
2021/11/01 00:24:27;;;;;;;0.63;0.60;;;;;;;15.19;72.04;99181.25;5067568;28;20564;-77
2021/11/01 00:26:55;;;;;;;0.97;0.60;;;;;;;15.12;72.29;99180.22;5071516;28;20229;-77
2021/11/01 00:29:21;;;;;;;0.80;0.60;;;;;;;15.04;71.83;99182.03;5065059;28;20222;-77
2021/11/01 00:31:48;;;;;;;1.47;0.50;;;;;;;14.99;71.96;99184.34;5069311;28;20205;-77
2021/11/01 00:34:15;;;;;;;0.50;0.50;;;;;;;14.93;72.00;99180.47;5067148;28;20201;-77
2021/11/01 00:36:41;;;;;;;1.23;0.60;;;;;;;14.89;71.66;99171.06;5070006;28;20218;-77
2021/11/01 00:39:08;;;;;;;1.10;0.50;;;;;;;14.84;71.52;99165.34;5066681;28;20211;-78
2021/11/01 00:41:34;;;;;;;1.37;0.70;;;;;;;14.80;71.46;99162.16;5067253;28;20226;-77
2021/11/01 00:44:03;;;;;;;1.00;0.50;;;;;;;14.77;71.49;99175.03;5065228;28;20690;-77
2021/11/01 00:46:30;;;;;;;1.30;0.50;;;;;;;14.73;71.25;99177.16;5067343;28;20220;-77
2021/11/01 00:48:57;;;;;;;1.20;1.00;;;;;;;14.71;71.24;99186.38;5065196;28;20687;-77
2021/11/01 00:51:23;;;;;;;0.77;0.43;;;;;;;14.68;70.86;99192.06;5066152;28;20204;-77
2021/11/01 00:53:50;;;;;;;0.40;0.30;;;;;;;14.62;70.52;99188.19;5069286;28;20193;-77
2021/11/01 00:56:18;;;;;;;1.53;0.40;;;;;;;14.58;70.64;99202.88;5067581;28;20723;-77
2021/11/01 00:58:45;;;;;;;0.83;0.30;;;;;;;14.54;69.84;99214.91;5067742;28;20585;-77
2021/11/01 01:01:16;;;;;;;1.23;0.50;;;;;;;14.49;69.94;99193.13;5068518;28;20204;-77
2021/11/01 01:03:43;;;;;;;0.90;0.30;;;;;;;14.46;69.70;99180.88;5064573;28;20251;-77
2021/11/01 01:06:10;;;;;;;1.37;0.30;;;;;;;14.44;69.97;99160.59;5068757;28;20225;-76
2021/11/01 01:08:37;;;;;;;1.07;0.30;;;;;;;14.41;69.33;99164.44;5063372;28;20689;-77
2021/11/01 01:11:04;;;;;;;0.70;0.30;;;;;;;14.40;69.37;99175.28;5072258;28;20294;-77
2021/11/01 01:13:35;;;;;;;0.40;0.27;;;;;;;14.38;69.40;99171.91;5084571;28;20230;-77
2021/11/01 01:16:08;;;;;;;1.37;0.30;;;;;;;14.36;69.26;99176.56;5070932;28;20224;-77
2021/11/01 01:18:38;;;;;;;0.50;0.20;;;;;;;14.33;68.79;99158.16;5084956;28;20212;-77
2021/11/01 01:22:12;;;;;;;1.30;0.40;;;;;;;14.30;68.89;99170.03;5072277;28;20201;-79
2021/11/01 01:24:00;;;;;;;1.20;0.20;;;;;;;14.26;68.61;99160.63;5083281;28;20299;-77
2021/11/01 01:26:27;;;;;;;1.13;0.40;;;;;;;14.23;68.35;99160.94;5065133;28;20236;-77
2021/11/01 01:28:54;;;;;;;1.50;0.33;;;;;;;14.20;68.65;99161.22;5064654;28;20675;-78
2021/11/01 01:31:21;;;;;;;0.80;0.40;;;;;;;14.18;68.14;99160.53;5069757;28;20754;-77
2021/11/01 01:33:49;;;;;;;1.03;0.50;;;;;;;14.15;68.00;99160.88;5063175;28;20612;-77
2021/11/01 01:36:16;;;;;;;2.77;1.10;;;;;;;14.13;68.32;99149.50;5070614;28;20681;-76
2021/11/01 01:38:43;;;;;;;1.40;0.80;;;;;;;14.09;68.35;99150.78;5080435;28;20207;-77
2021/11/01 01:41:14;;;;;;;3.03;1.13;;;;;;;14.07;68.42;99172.34;5087951;28;20245;-77
2021/11/01 01:43:46;;;;;;;6.73;0.70;;;;;;;14.05;68.55;99181.53;5082808;28;20302;-77
2021/11/01 01:46:13;;;;;;;0.93;0.50;;;;;;;14.02;68.29;99185.34;5079998;28;20228;-77
2021/11/01 01:48:41;;;;;;;2.70;0.83;;;;;;;14.01;68.64;99180.16;5092015;28;20212;-77
2021/11/01 01:51:10;;;;;;;2.80;0.43;;;;;;;14.00;68.17;99186.50;5078761;28;20278;-77
2021/11/01 01:53:37;;;;;;;1.90;0.50;;;;;;;13.97;68.59;99178.81;5079672;28;20201;-77
2021/11/01 01:56:05;;;;;;;0.93;0.43;;;;;;;13.94;68.31;99182.63;5070790;28;20234;-78
2021/11/01 01:58:44;;;;;;;2.00;0.60;;;;;;;13.93;68.80;99170.25;5073460;28;20205;-77
2021/11/01 02:01:13;;;;;;;4.33;0.67;;;;;;;13.90;68.58;99157.16;5070539;28;20205;-77
2021/11/01 02:03:43;;;;;;;2.60;0.63;;;;;;;13.88;68.46;99145.75;5073345;28;20212;-77
2021/11/01 02:06:15;;;;;;;4.00;0.80;;;;;;;13.85;68.72;99144.22;5071964;28;20307;-77
2021/11/01 02:08:47;;;;;;;4.10;0.77;;;;;;;13.83;68.96;99137.34;5082233;28;20201;-77
2021/11/01 02:11:17;;;;;;;3.50;0.80;;;;;;;13.81;68.77;99150.88;5075165;28;20232;-77
2021/11/01 02:13:50;;;;;;;5.40;0.93;;;;;;;13.78;68.65;99150.38;5074575;28;20209;-77
2021/11/01 02:16:17;;;;;;;3.80;1.00;;;;;;;13.73;68.68;99156.19;5067913;28;20731;-77
2021/11/01 02:18:48;;;;;;;3.27;0.87;;;;;;;13.71;69.21;99152.81;5073731;28;20792;-77
2021/11/01 02:21:25;;;;;;;3.93;1.40;;;;;;;13.68;69.35;99147.75;5074680;28;20197;-77
2021/11/01 02:24:03;;;;;;;8.00;1.27;;;;;;;13.66;69.21;99152.41;5086151;28;20211;-77
2021/11/01 02:26:32;;;;;;;3.37;1.00;;;;;;;13.64;69.24;99164.25;5075762;28;20284;-77
2021/11/01 02:29:00;;;;;;;5.50;1.10;;;;;;;13.60;69.31;99153.06;5075188;28;20221;-77
2021/11/01 02:31:27;;;;;;;9.33;1.17;;;;;;;13.59;69.72;99137.16;5074342;28;20228;-77
2021/11/01 02:33:55;;;;;;;5.40;1.30;;;;;;;13.56;69.45;99149.00;5086063;28;20589;-77
2021/11/01 02:36:22;;;;;;;6.43;1.33;;;;;;;13.53;69.68;99149.28;5085349;28;20228;-77
2021/11/01 02:38:50;;;;;;;5.07;1.30;;;;;;;13.50;69.52;99147.75;5084528;28;20215;-77
2021/11/01 02:41:19;;;;;;;3.93;1.23;;;;;;;13.47;70.04;99147.22;5079042;28;20308;-77
2021/11/01 02:43:50;;;;;;;5.30;1.50;;;;;;;13.42;69.79;99147.69;5082001;28;20209;-77
2021/11/01 02:46:17;;;;;;;4.13;1.00;;;;;;;13.39;69.59;99169.38;5079613;28;20228;-78
2021/11/01 02:48:45;;;;;;;5.87;1.60;;;;;;;13.35;70.05;99175.19;5077687;28;20213;-77
2021/11/01 02:51:12;;;;;;;5.00;1.20;;;;;;;13.31;69.98;99171.97;5069142;28;20216;-77
2021/11/01 02:53:39;;;;;;;6.43;1.17;;;;;;;13.30;69.98;99185.47;5073630;28;20205;-79
2021/11/01 02:56:08;;;;;;;5.13;1.13;;;;;;;13.28;70.26;99187.44;5072296;28;20232;-77
2021/11/01 02:58:35;;;;;;;5.63;1.20;;;;;;;13.25;70.47;99187.78;5070000;28;20206;-77
2021/11/01 03:01:04;;;;;;;6.47;2.00;;;;;;;13.21;70.54;99179.22;5076021;28;20209;-77
2021/11/01 03:03:30;;;;;;;4.53;0.80;;;;;;;13.16;70.53;99171.63;5073040;28;20208;-78
2021/11/01 03:05:57;;;;;;;5.53;1.00;;;;;;;13.13;71.07;99171.06;5069474;28;20245;-77
2021/11/01 03:08:24;;;;;;;4.93;1.17;;;;;;;13.08;70.84;99176.00;5072805;28;20674;-78
2021/11/01 03:10:52;;;;;;;5.07;1.10;;;;;;;13.04;71.31;99180.81;5071140;28;20231;-77
2021/11/01 03:13:19;;;;;;;5.40;1.50;;;;;;;13.01;71.33;99185.63;5071920;28;20240;-77
2021/11/01 03:15:47;;;;;;;3.13;0.90;;;;;;;12.97;71.11;99190.41;5067371;28;20225;-77
2021/11/01 03:18:16;;;;;;;3.27;1.03;;;;;;;12.92;71.58;99194.50;5073676;28;20593;-77
2021/11/01 03:20:45;;;;;;;4.50;1.10;;;;;;;12.89;71.41;99189.47;5088663;28;20204;-76
2021/11/01 03:23:17;;;;;;;4.57;1.33;;;;;;;12.85;71.70;99187.09;5078156;28;20586;-77
2021/11/01 03:25:51;;;;;;;6.87;1.17;;;;;;;12.82;71.94;99203.41;5065819;28;20237;-78
2021/11/01 03:28:19;;;;;;;1.97;1.03;;;;;;;12.80;72.25;99212.56;5077330;28;20208;-77
2021/11/01 03:30:48;;;;;;;7.87;1.80;;;;;;;12.76;72.36;99235.19;5058053;28;20243;-77
2021/11/01 03:33:17;;;;;;;7.73;1.23;;;;;;;12.72;72.47;99231.97;5072017;28;20219;-77
2021/11/01 03:35:45;;;;;;;5.17;1.30;;;;;;;12.70;72.53;99233.97;5072214;28;20618;-76
2021/11/01 03:38:13;;;;;;;7.17;1.33;;;;;;;12.69;72.33;99231.44;5072420;28;20219;-77
2021/11/01 03:40:42;;;;;;;5.93;1.93;;;;;;;12.66;72.62;99226.38;5072543;28;20205;-77
2021/11/01 03:43:10;;;;;;;3.80;1.20;;;;;;;12.65;72.70;99214.03;5079622;28;20295;-77
2021/11/01 03:45:38;;;;;;;6.33;1.20;;;;;;;12.61;72.57;99210.78;5076501;28;20649;-76
2021/11/01 03:48:08;;;;;;;9.27;1.80;;;;;;;12.59;72.72;99210.09;5077849;28;20568;-77
2021/11/01 03:50:39;;;;;;;7.77;1.70;;;;;;;12.58;72.59;99207.56;5078129;28;20260;-77
2021/11/01 03:53:06;;;;;;;8.97;1.27;;;;;;;12.55;72.47;99213.19;5091620;28;20303;-77
2021/11/01 03:55:33;;;;;;;6.03;1.43;;;;;;;12.55;72.72;99213.19;5092635;28;20261;-78
2021/11/01 03:58:00;;;;;;;6.93;1.53;;;;;;;12.51;72.85;99218.00;5077051;28;20704;-77
2021/11/01 04:00:28;;;;;;;7.40;1.70;;;;;;;12.47;72.67;99212.09;5071241;28;20209;-77
2021/11/01 04:02:56;;;;;;;5.13;1.37;;;;;;;12.45;72.35;99211.41;5070576;28;20231;-77
2021/11/01 04:05:23;;;;;;;7.93;1.43;;;;;;;12.45;72.58;99207.88;5072860;28;20728;-77
2021/11/01 04:07:52;;;;;;;7.90;1.87;;;;;;;12.45;72.18;99214.06;5071302;28;20567;-78
2021/11/01 04:10:18;;;;;;;7.17;1.70;;;;;;;12.43;72.54;99229.38;5073684;28;20228;-77
2021/11/01 04:12:45;;;;;;;7.43;2.00;;;;;;;12.40;72.32;99221.66;5076570;28;20215;-77
2021/11/01 04:15:14;;;;;;;9.00;1.50;;;;;;;12.40;72.37;99235.00;5071096;28;20258;-78
2021/11/01 04:17:44;;;;;;;12.47;1.90;;;;;;;12.38;72.23;99228.13;5070881;28;20293;-77
2021/11/01 04:20:26;;;;;;;7.30;1.70;;;;;;;12.38;72.07;99234.31;5072829;28;20286;-77
2021/11/01 04:22:58;;;;;;;8.33;1.60;;;;;;;12.38;72.12;99238.78;5073325;28;20204;-77
2021/11/01 04:25:27;;;;;;;7.07;1.63;;;;;;;12.37;72.19;99231.78;5077519;28;20231;-76
2021/11/01 04:27:55;;;;;;;9.80;2.07;;;;;;;12.36;71.96;99241.59;5081264;28;20215;-78
2021/11/01 04:30:21;;;;;;;7.47;1.20;;;;;;;12.33;72.02;99233.91;5085126;28;20256;-78
2021/11/01 04:32:52;;;;;;;6.87;1.77;;;;;;;12.32;72.19;99242.91;5073924;28;20236;-77
2021/11/01 04:35:22;;;;;;;8.57;2.70;;;;;;;12.32;72.32;99239.38;5075621;28;20245;-77
2021/11/01 04:37:53;;;;;;;7.77;1.30;;;;;;;12.30;72.00;99239.53;5077069;28;20881;-77
2021/11/01 04:40:34;;;;;;;6.37;1.40;;;;;;;12.30;71.82;99233.34;5077378;28;20208;-77
2021/11/01 04:54:03;;;;;;;10.13;1.60;;;;;;;12.25;71.97;99215.06;5065221;28;20254;-77
2021/11/01 04:56:31;;;;;;;10.13;1.70;;;;;;;12.24;72.03;99216.06;5063111;28;20235;-78
2021/11/01 04:58:58;;;;;;;5.30;1.60;;;;;;;12.25;71.61;99217.75;5060177;28;20227;-77
2021/11/01 05:01:31;;;;;;;5.90;1.43;;;;;;;12.23;71.96;99219.72;5062745;28;20203;-77
2021/11/01 05:04:03;;;;;;;8.13;1.77;;;;;;;12.23;71.89;99226.88;5066531;28;20225;-77
2021/11/01 05:06:30;;;;;;;7.60;1.70;;;;;;;12.22;71.69;99222.53;5058534;28;20711;-79
2021/11/01 05:08:59;;;;;;;8.50;1.73;;;;;;;12.23;71.55;99218.88;5058831;28;20243;-77
2021/11/01 05:11:32;;;;;;;7.70;2.13;;;;;;;12.21;71.44;99216.34;5066552;28;20243;-79
2021/11/01 05:14:02;;;;;;;11.83;2.70;;;;;;;12.20;71.59;99219.16;5063903;28;20922;-77
2021/11/01 05:16:39;;;;;;;12.33;2.70;;;;;;;12.18;71.45;99213.97;5062952;28;20226;-77
2021/11/01 05:19:10;;;;;;;11.07;1.80;;;;;;;12.19;71.49;99212.97;5063958;28;20208;-77
2021/11/01 05:21:41;;;;;;;5.83;1.50;;;;;;;12.18;71.49;99213.97;5061944;28;20208;-77
2021/11/01 05:24:11;;;;;;;8.63;1.93;;;;;;;12.18;71.09;99216.66;5065082;28;20600;-77
2021/11/01 05:29:23;;;;;;;12.63;1.83;;;;;;;12.15;71.11;99214.25;5069109;28;20196;-77
2021/11/01 05:31:56;;;;;;;7.73;1.87;;;;;;;12.14;71.04;99223.25;5067355;28;20218;-77
2021/11/01 05:34:22;;;;;;;9.00;1.70;;;;;;;12.14;71.13;99228.59;5077194;28;20206;-77
2021/11/01 05:36:49;;;;;;;9.27;1.90;;;;;;;12.14;71.25;99215.25;5064448;28;20222;-78
2021/11/01 05:39:16;;;;;;;6.60;1.67;;;;;;;12.13;71.00;99201.06;5058771;28;20212;-78
2021/11/01 05:41:42;;;;;;;6.47;1.50;;;;;;;12.11;70.85;99200.34;5059350;28;20213;-77
2021/11/01 05:44:09;;;;;;;8.30;2.67;;;;;;;12.11;70.98;99213.69;5062232;28;20554;-77
2021/11/01 05:46:39;;;;;;;9.00;2.20;;;;;;;12.10;70.93;99217.34;5060658;28;20232;-77
2021/11/01 05:49:08;;;;;;;5.70;1.50;;;;;;;12.09;71.01;99214.81;5062163;28;20206;-77
2021/11/01 05:51:36;;;;;;;5.53;1.30;;;;;;;12.08;71.04;99221.13;5061447;28;20233;-77
2021/11/01 05:54:05;;;;;;;7.70;1.83;;;;;;;12.05;70.97;99216.06;5062112;28;20273;-77
2021/11/01 05:56:38;;;;;;;4.73;1.40;;;;;;;12.03;70.90;99212.69;5064173;28;20321;-77
2021/11/01 06:04:43;;;;;;;5.27;1.27;;;;;;;11.97;70.81;99203.47;5062399;28;20201;-77
2021/11/01 06:07:21;;;;;;;3.70;1.27;;;;;;;11.96;70.87;99206.25;5061288;28;20294;-77
2021/11/01 06:09:54;;;;;;;7.70;1.10;;;;;;;11.95;70.74;99216.09;5058308;28;20212;-77
2021/11/01 06:15:06;;;;;;;11.20;1.50;;;;;;;11.95;70.62;99244.59;5058470;28;20291;-78
2021/11/01 06:17:34;;;;;;;5.43;1.50;;;;;;;11.94;70.59;99258.91;5060282;28;20203;-77
2021/11/01 06:20:01;;;;;;;7.00;1.63;;;;;;;11.93;70.58;99260.75;5061035;28;20212;-77
2021/11/01 06:22:27;;;;;;;6.10;1.80;;;;;;;11.95;70.29;99260.59;5062836;28;20199;-77
2021/11/01 06:24:57;;;;;;;4.53;1.67;;;;;;;11.92;70.68;99267.06;5072063;28;20213;-78
2021/11/01 06:27:24;;;;;;;6.73;2.10;;;;;;;11.92;70.28;99275.06;5072891;28;20295;-75
2021/11/01 06:29:59;;;;;;;6.70;1.57;;;;;;;11.92;70.25;99275.06;5086018;28;20213;-76
2021/11/01 06:32:33;;;;;;;5.80;1.73;;;;;;;11.92;70.07;99272.41;5062264;28;20361;-75
2021/11/01 06:40:53;;;;;;;7.17;1.77;;;;;;;11.91;69.66;99276.03;5077565;28;20212;-75
2021/11/01 06:43:24;;;;;;;9.20;1.33;;;;;;;11.92;69.57;99276.88;5072858;28;20580;-75
2021/11/01 06:54:38;;;;;;;5.27;1.30;;;;;;;11.95;68.98;99279.28;5089294;28;20294;-75
2021/11/01 06:57:24;;;;;;;7.27;1.40;;;;;;;11.94;68.75;99289.13;5078063;28;20241;-75
2021/11/01 07:16:23;;;;;;;5.03;1.17;;;;;;;11.91;69.95;99297.38;5071897;28;20600;-75
2021/11/01 07:18:54;;;;;;;4.80;1.20;;;;;;;11.89;70.66;99293.16;5074530;28;20623;-75
2021/11/01 07:24:53;;;;;;;4.10;1.03;;;;;;;11.87;70.93;99300.47;5060190;28;20211;-75
2021/11/01 07:30:43;;;;;;;6.57;1.37;;;;;;;11.84;71.44;99301.56;5079860;28;20224;-76
2021/11/01 08:20:32;;;;;;;4.90;1.60;;;;;;;11.84;73.06;99320.25;5070227;28;20211;-75
2021/11/01 08:23:32;;;;;;;4.77;1.03;;;;;;;11.85;73.16;99332.59;5050797;28;20208;-75
2021/11/01 08:29:03;;;;;;;4.63;0.90;;;;;;;11.86;73.04;99307.63;5044152;28;20217;-75
2021/11/01 08:37:19;;;;;;;4.70;1.43;;;;;;;11.90;72.92;99334.88;5073576;28;20264;-75
2021/11/01 08:40:06;;;;;;;6.43;1.20;;;;;;;11.94;72.83;99320.28;5068312;28;20637;-75
2021/11/01 08:45:33;;;;;;;5.33;1.07;;;;;;;11.99;72.28;99318.91;5090152;28;20232;-75
2021/11/01 08:48:26;;;;;;;6.67;1.20;;;;;;;12.02;72.10;99313.25;5075576;28;20595;-75
2021/11/01 09:02:07;;;;;;;5.17;1.23;;;;;;;12.14;71.63;99346.03;5083129;28;20214;-75
2021/11/01 09:04:46;;;;;;;5.53;1.40;;;;;;;12.15;71.51;99339.69;5090466;28;20299;-75
2021/11/01 09:21:26;;;;;;;3.00;1.00;;;;;;;12.34;69.91;99355.72;5073753;28;20212;-75
2021/11/01 09:24:12;;;;;;;3.30;0.87;;;;;;;12.42;69.80;99353.19;5075331;28;20230;-75
2021/11/01 09:26:40;;;;;;;4.20;0.90;;;;;;;12.48;69.46;99352.63;5073142;28;20318;-75
2021/11/01 09:29:15;;;;;;;3.43;0.90;;;;;;;12.51;69.35;99340.84;5087365;28;20223;-75
2021/11/01 09:37:25;;;;;;;4.70;1.23;;;;;;;12.66;68.56;99327.88;5078093;28;20353;-75
2021/11/01 09:42:44;;;;;;;5.83;1.63;;;;;;;12.72;67.88;99335.34;5077051;28;20203;-75
2021/11/01 09:45:11;;;;;;;6.03;1.10;;;;;;;12.74;67.68;99347.53;5087186;28;20211;-76
2021/11/01 09:47:38;;;;;;;4.97;0.90;;;;;;;12.75;67.93;99343.03;5091034;28;20208;-75
2021/11/01 09:50:05;;;;;;;4.70;0.90;;;;;;;12.78;67.39;99334.75;5093211;28;20296;-75
2021/11/01 09:52:34;;;;;;;3.77;0.80;;;;;;;12.85;66.97;99338.56;5090672;28;20239;-75
2021/11/01 09:55:13;;;;;;;2.60;0.83;;;;;;;12.88;66.64;99327.56;5083958;28;20236;-76
2021/11/01 09:59:10;;;;;;;3.73;0.77;;;;;;;12.90;66.42;99320.22;5072783;22;20260;-85
2021/11/01 10:00:26;;;;;;;1.53;0.40;;;;;;;12.94;66.67;99324.31;5067593;28;20213;-85
2021/11/01 10:02:52;;;;;;;6.80;1.53;;;;;;;12.97;66.18;99323.19;5069841;28;20212;-84
2021/11/01 10:05:23;;;;;;;5.80;0.73;;;;;;;13.03;66.11;99320.78;5071096;28;20201;-84
2021/11/01 10:07:51;;;;;;;4.43;1.00;;;;;;;13.09;65.77;99314.00;5059737;28;20260;-85
2021/11/01 10:10:20;;;;;;;2.13;0.57;;;;;;;13.12;65.69;99317.22;5064287;28;20244;-87
2021/11/01 10:12:49;;;;;;;2.80;0.70;;;;;;;13.17;65.22;99323.03;5067465;28;20236;-86
2021/11/01 10:18:07;;;;;;;1.10;0.67;;;;;;;13.22;64.46;99319.91;5062084;28;20279;-85
2021/11/01 10:20:37;;;;;;;6.80;0.97;;;;;;;13.26;64.19;99323.13;5067660;28;20216;-84
2021/11/01 10:23:15;;;;;;;3.37;0.90;;;;;;;13.31;63.95;99310.16;5069257;28;20578;-86
2021/11/01 10:25:42;;;;;;;5.00;1.00;;;;;;;13.39;63.76;99315.63;5063651;28;20229;-84
2021/11/01 10:28:09;;;;;;;4.40;0.63;;;;;;;13.44;63.09;99314.16;5071166;28;20221;-86
2021/11/01 10:30:36;;;;;;;3.97;1.10;;;;;;;13.49;62.86;99305.72;5063015;28;20300;-85
2021/11/01 10:33:05;;;;;;;8.97;1.67;;;;;;;13.52;62.60;99306.25;5058888;28;20275;-85
2021/11/01 10:35:34;;;;;;;4.83;0.87;;;;;;;13.55;61.73;99307.81;5058238;28;20575;-86
2021/11/01 10:38:05;;;;;;;2.07;1.03;;;;;;;13.56;61.51;99306.81;5064620;28;20282;-86
2021/11/01 10:40:36;;;;;;;3.33;0.93;;;;;;;13.62;61.72;99297.34;5075874;28;20209;-86
2021/11/01 10:43:20;;;;;;;4.87;0.90;;;;;;;13.65;61.48;99299.72;5058822;28;20580;-86
2021/11/01 10:57:18;;;;;;;4.23;0.90;;;;;;;13.78;59.78;99287.69;5070328;28;20298;-86
2021/11/01 11:11:01;;;;;;;4.47;0.70;;;;;;;13.79;59.30;99280.50;5052160;28;20220;-73
2021/11/01 11:13:34;;;;;;;1.97;0.57;;;;;;;13.83;58.99;99284.53;5065862;28;20224;-73
2021/11/01 11:16:03;;;;;;;2.43;0.60;;;;;;;13.86;59.01;99285.06;5058328;28;20286;-72
2021/11/01 11:18:52;;;;;;;4.97;0.80;;;;;;;13.87;58.58;99272.53;5064615;28;20209;-74
2021/11/01 11:21:37;;;;;;;5.40;0.80;;;;;;;13.90;57.90;99281.13;5073420;22;20205;-81
2021/11/01 11:24:31;;;;;;;4.47;0.63;;;;;;;13.89;57.99;99282.09;5063645;28;20717;-82
2021/11/01 11:27:17;;;;;;;3.13;0.70;;;;;;;13.94;58.03;99267.44;5060532;28;20284;-82
2021/11/01 11:38:25;;;;;;;2.23;0.77;;;;;;;14.01;57.26;99295.25;5072254;28;20313;-82
2021/11/01 11:43:37;;;;;;;4.80;1.07;;;;;;;14.02;57.67;99294.25;5063550;28;20795;-81
2021/11/01 11:49:02;;;;;;;7.23;1.00;;;;;;;14.09;57.29;99298.03;5072567;28;20709;-81
2021/11/01 11:51:29;;;;;;;2.10;0.87;;;;;;;14.09;57.58;99303.38;5075759;28;20273;-81
2021/11/01 11:54:00;;;;;;;5.07;0.70;;;;;;;14.11;57.05;99306.75;5071451;28;20218;-81
2021/11/01 11:56:31;;;;;;;1.47;0.50;;;;;;;14.12;56.76;99305.75;5065922;28;20205;-81
2021/11/01 11:59:00;;;;;;;2.67;0.87;;;;;;;14.11;56.55;99306.75;5061015;28;20320;-81
2021/11/01 12:01:30;;;;;;;5.37;1.03;;;;;;;14.11;56.36;99312.94;5062893;28;20213;-81
2021/11/01 12:03:58;;;;;;;2.77;0.67;;;;;;;14.12;55.39;99308.44;5063559;28;20228;-81
2021/11/01 12:06:44;;;;;;;1.17;0.50;;;;;;;14.10;55.32;99294.38;5061647;28;20277;-82
2021/11/01 12:09:16;;;;;;;3.00;0.53;;;;;;;14.08;55.55;99297.19;5040837;28;20234;-81
2021/11/01 12:12:17;;;;;;;2.73;0.40;;;;;;;14.07;55.35;99303.53;5054383;28;20217;-82
2021/11/01 12:17:31;;;;;;;4.50;1.00;;;;;;;14.08;55.60;99297.19;5061234;28;20594;-82
2021/11/01 12:20:00;;;;;;;2.83;0.53;;;;;;;14.07;54.97;99310.72;5060693;28;20230;-81
2021/11/01 12:22:32;;;;;;;2.20;0.60;;;;;;;14.05;54.64;99296.66;5060408;28;20220;-82
2021/11/01 12:25:03;;;;;;;5.87;1.57;;;;;;;14.05;54.91;99294.81;5059498;28;20198;-82
2021/11/01 12:27:35;;;;;;;2.33;0.87;;;;;;;14.01;54.89;99287.22;5066697;28;20230;-81
2021/11/01 12:30:04;;;;;;;2.53;0.70;;;;;;;14.01;55.24;99289.91;5080956;28;20225;-81
2021/11/01 12:32:32;;;;;;;1.80;0.50;;;;;;;14.01;54.66;99292.59;5066130;28;20241;-82
2021/11/01 12:35:01;;;;;;;4.57;0.90;;;;;;;13.94;54.80;99302.22;5080292;28;20272;-82
2021/11/01 12:37:30;;;;;;;3.67;0.70;;;;;;;13.93;55.21;99303.22;5063561;28;20604;-82
2021/11/01 12:40:04;;;;;;;3.07;1.00;;;;;;;13.93;54.91;99296.03;5068389;28;20255;-82
2021/11/01 12:42:42;;;;;;;3.67;0.70;;;;;;;13.94;55.37;99299.56;5064641;28;20572;-82
2021/11/01 12:48:23;;;;;;;5.23;0.90;;;;;;;13.93;55.57;99293.34;5061609;28;20198;-82
2021/11/01 12:59:14;;;;;;;2.57;0.83;;;;;;;14.04;54.57;99287.78;5062373;28;20271;-82
2021/11/01 13:01:48;;;;;;;2.63;0.60;;;;;;;14.02;54.89;99281.72;5060773;28;20209;-82
2021/11/01 13:04:32;;;;;;;2.40;0.67;;;;;;;14.05;54.80;99283.25;5062185;28;20193;-81
2021/11/01 13:07:03;;;;;;;5.10;1.07;;;;;;;14.05;54.57;99285.94;5061235;28;20564;-81
2021/11/01 13:09:34;;;;;;;5.17;0.90;;;;;;;14.05;54.51;99291.28;5060406;28;20221;-81
2021/11/01 13:12:18;;;;;;;3.30;0.50;;;;;;;14.03;54.45;99299.47;5059793;28;20254;-81
2021/11/01 13:14:55;;;;;;;2.83;0.60;;;;;;;14.00;54.11;99297.09;5059582;28;20219;-81
2021/11/01 13:18:05;;;;;;;5.47;0.80;;;;;;;13.97;54.67;99285.88;5060201;28;20198;-81
2021/11/01 13:20:35;;;;;;;4.33;0.80;;;;;;;13.93;54.85;99292.50;5058740;28;20592;-82
2021/11/01 13:23:02;;;;;;;3.50;0.97;;;;;;;13.93;54.62;99282.66;5060947;28;20723;-82
2021/11/01 13:25:37;;;;;;;6.10;0.90;;;;;;;13.96;55.15;99278.84;5061429;28;20611;-82
2021/11/01 13:37:19;;;;;;;3.70;0.73;;;;;;;13.99;55.08;99286.53;5064707;28;20591;-82
2021/11/01 13:39:58;;;;;;;4.90;1.07;;;;;;;13.98;54.93;99285.69;5065987;28;20223;-81
2021/11/01 13:42:24;;;;;;;4.03;1.20;;;;;;;14.00;54.99;99288.22;5067578;28;20205;-81
2021/11/01 13:44:51;;;;;;;3.23;1.00;;;;;;;14.04;54.63;99286.94;5063335;28;20270;-82
2021/11/01 13:47:17;;;;;;;3.20;0.70;;;;;;;14.03;54.37;99306.66;5071321;28;20211;-82
2021/11/01 13:49:48;;;;;;;3.20;0.70;;;;;;;14.03;54.67;99293.28;5068834;28;20255;-82
2021/11/01 13:52:34;;;;;;;2.93;0.87;;;;;;;14.01;54.40;99293.41;5062998;28;20198;-82
2021/11/01 13:55:04;;;;;;;3.03;0.80;;;;;;;14.03;54.43;99282.56;5065353;28;20598;-82
2021/11/01 13:57:37;;;;;;;3.63;0.60;;;;;;;14.03;54.35;99282.56;5065313;28;20190;-82
2021/11/01 14:00:21;;;;;;;3.23;0.70;;;;;;;14.01;54.84;99295.25;5065686;28;20562;-82
2021/11/01 14:03:07;;;;;;;4.67;1.00;;;;;;;14.00;54.69;99294.41;5048694;28;20222;-82
2021/11/01 14:11:24;;;;;;;4.63;0.70;;;;;;;13.97;54.64;99301.94;5037318;28;20209;-80
2021/11/01 14:14:03;;;;;;;2.77;0.60;;;;;;;13.99;54.16;99299.91;5062286;28;20217;-80
2021/11/01 14:16:34;;;;;;;3.37;0.70;;;;;;;13.97;54.56;99299.25;5063312;28;20202;-81
2021/11/01 14:30:34;;;;;;;4.07;0.80;;;;;;;13.93;54.62;99298.72;5065563;27;20546;-74
2021/11/01 14:58:26;;;;;;;3.33;0.93;;;;;;;14.03;55.38;99293.28;5066552;28;20775;-75
2021/11/01 15:09:22;;;;;;;3.70;1.30;;;;;;;14.15;55.61;99292.06;5062092;28;20229;-76
2021/11/01 15:14:53;;;;;;;6.00;1.00;;;;;;;14.13;55.85;99305.63;5058844;28;20201;-75
2021/11/01 15:20:20;;;;;;;3.03;0.90;;;;;;;14.07;55.69;99308.03;5057107;28;20204;-75
2021/11/01 15:37:40;;;;;;;5.93;2.03;;;;;;;13.85;56.60;99315.50;5042138;28;20254;-74
2021/11/01 15:40:21;;;;;;;5.10;1.73;;;;;;;13.82;56.28;99318.47;5073215;28;20204;-75
2021/11/01 16:18:47;;;;;;;4.37;1.63;;;;;;;13.27;57.33;99344.34;5051309;28;20198;-70
2021/11/01 16:21:14;;;;;;;6.10;1.73;;;;;;;13.25;57.85;99342.84;5055166;28;20685;-68
2021/11/01 16:23:42;;;;;;;8.67;2.23;;;;;;;13.22;58.00;99345.81;5049437;28;20220;-69
2021/11/01 16:26:22;;;;;;;4.83;1.43;;;;;;;13.19;58.11;99339.75;5050193;28;20217;-70
2021/11/01 16:28:53;;;;;;;4.73;1.60;;;;;;;13.16;57.85;99348.06;5052246;28;20236;-71
2021/11/01 16:34:12;;;;;;;5.30;1.67;;;;;;;13.04;58.21;99354.53;5042459;28;20222;-70
2021/11/01 16:36:59;;;;;;;3.57;1.60;;;;;;;12.99;58.45;99350.63;5049484;28;20229;-67
2021/11/01 16:39:30;;;;;;;6.60;1.90;;;;;;;12.92;58.94;99349.50;5055247;28;20296;-71
2021/11/01 16:41:58;;;;;;;3.57;1.33;;;;;;;12.86;58.86;99340.25;5048753;28;20212;-71
2021/11/01 16:44:26;;;;;;;7.53;1.90;;;;;;;12.78;59.16;99337.44;5045100;28;20214;-71
2021/11/01 16:46:54;;;;;;;7.37;2.07;;;;;;;12.71;59.57;99349.69;5037713;28;20366;-70
2021/11/01 16:49:22;;;;;;;3.37;1.50;;;;;;;12.65;59.98;99343.06;5031295;28;20214;-71
2021/11/01 16:51:51;;;;;;;6.10;1.53;;;;;;;12.60;60.23;99349.81;5023444;28;20218;-71
2021/11/01 16:54:20;;;;;;;6.83;1.73;;;;;;;12.55;60.53;99341.38;5024669;28;20238;-71
2021/11/01 16:56:58;;;;;;;5.70;2.03;;;;;;;12.49;61.08;99340.97;5025561;28;20248;-71
2021/11/01 16:59:37;;;;;;;6.23;1.90;;;;;;;12.43;61.25;99338.84;5026433;28;20214;-70
2021/11/01 17:02:22;;;;;;;5.37;2.03;;;;;;;12.37;61.49;99333.22;5026687;28;20271;-71
2021/11/01 17:04:53;;;;;;;6.53;1.70;;;;;;;12.32;61.86;99336.34;5028774;28;20598;-71
2021/11/01 17:07:30;;;;;;;9.40;2.73;;;;;;;12.26;61.88;99328.88;5025782;28;20490;-71
2021/11/01 17:10:20;;;;;;;6.60;2.13;;;;;;;12.23;62.29;99329.16;5023290;28;20233;-70
2021/11/01 17:24:08;;;;;;;6.90;2.80;;;;;;;11.97;63.67;99325.34;5012066;28;20209;-70
2021/11/01 17:26:51;;;;;;;4.03;1.67;;;;;;;11.94;63.76;99336.28;5023927;28;20240;-69
2021/11/01 17:29:39;;;;;;;5.13;1.37;;;;;;;11.88;64.04;99328.81;5024966;28;20246;-70
2021/11/01 17:35:12;;;;;;;4.57;1.80;;;;;;;11.82;64.52;99333.72;5025303;28;20378;-71